createdAt,value
2022-09-07T00:01:47.165Z,7.90
2022-09-07T00:04:17.821Z,8.32
2022-09-07T00:06:47.763Z,7.18
2022-09-07T00:09:17.888Z,7.50
2022-09-07T00:11:48.376Z,7.53
2022-09-07T00:14:18.428Z,8.07
2022-09-07T00:16:48.358Z,7.03
2022-09-07T00:19:18.515Z,7.68
2022-09-07T00:21:48.516Z,7.95
2022-09-07T00:24:18.475Z,8.00
2022-09-07T00:26:48.455Z,9.65
2022-09-07T00:29:18.360Z,8.07
2022-09-07T00:31:48.485Z,8.57
2022-09-07T00:34:18.236Z,8.75
2022-09-07T00:36:48.107Z,8.20
2022-09-07T00:39:17.804Z,8.35
2022-09-07T00:41:47.436Z,9.05
2022-09-07T00:44:56.128Z,8.77
2022-09-07T00:47:35.224Z,9.90
2022-09-07T00:50:13.377Z,9.50
2022-09-07T00:52:46.466Z,8.38
2022-09-07T00:55:18.122Z,9.82
2022-09-07T00:57:52.652Z,8.82
2022-09-07T01:00:22.515Z,8.95
2022-09-07T01:02:56.134Z,9.75
2022-09-07T01:05:41.127Z,8.38
2022-09-07T01:08:11.489Z,8.98
2022-09-07T01:10:42.071Z,8.82
2022-09-07T01:13:11.977Z,8.32
2022-09-07T01:16:18.629Z,9.00
2022-09-07T01:19:08.296Z,7.60
2022-09-07T01:22:17.256Z,8.32
2022-09-07T01:25:21.878Z,8.77
2022-09-07T01:28:14.083Z,8.80
2022-09-07T01:30:56.614Z,10.77
2022-09-07T01:34:05.347Z,9.77
2022-09-07T01:37:03.245Z,8.98
2022-09-07T01:39:46.668Z,9.43
2022-09-07T01:42:21.974Z,9.50
2022-09-07T01:44:59.914Z,9.68
2022-09-07T01:50:34.196Z,9.77
2022-09-07T01:53:16.978Z,9.70
2022-09-07T01:56:00.465Z,9.55
2022-09-07T01:58:59.568Z,9.43
2022-09-07T02:01:51.918Z,9.75
2022-09-07T02:04:29.055Z,9.40
2022-09-07T02:07:11.054Z,10.50
2022-09-07T02:10:05.386Z,9.38
2022-09-07T02:12:57.216Z,10.00
2022-09-07T02:15:34.883Z,9.45
2022-09-07T02:18:08.188Z,9.65
2022-09-07T02:20:41.334Z,9.95
2022-09-07T02:23:33.865Z,10.65
2022-09-07T02:26:12.377Z,10.27
2022-09-07T02:28:42.357Z,11.48
2022-09-07T02:31:12.160Z,12.02
2022-09-07T02:33:42.688Z,12.02
2022-09-07T02:36:14.085Z,12.32
2022-09-07T02:38:44.190Z,12.15
2022-09-07T02:41:35.443Z,12.57
2022-09-07T02:44:15.805Z,12.82
2022-09-07T02:47:24.474Z,12.57
2022-09-07T02:50:33.434Z,12.43
2022-09-07T02:53:42.074Z,12.48
2022-09-07T02:56:37.430Z,12.15
2022-09-07T02:59:46.145Z,15.23
2022-09-07T03:02:55.040Z,15.27
2022-09-07T03:05:47.047Z,14.00
2022-09-07T03:08:24.445Z,13.68
2022-09-07T03:10:56.229Z,15.80
2022-09-07T03:13:30.049Z,13.93
2022-09-07T03:15:59.888Z,13.80
2022-09-07T03:18:30.791Z,15.30
2022-09-07T03:21:00.767Z,13.45
2022-09-07T03:23:30.422Z,14.38
2022-09-07T03:26:00.051Z,14.38
2022-09-07T03:28:29.908Z,13.02
2022-09-07T03:30:59.749Z,13.57
2022-09-07T03:33:29.387Z,13.30
2022-09-07T03:36:04.214Z,13.63
2022-09-07T03:38:34.104Z,14.25
2022-09-07T03:41:06.064Z,13.65
2022-09-07T03:43:41.750Z,13.80
2022-09-07T03:46:12.785Z,14.27
2022-09-07T03:48:42.815Z,13.35
2022-09-07T03:51:14.607Z,13.13
2022-09-07T03:53:47.817Z,13.27
2022-09-07T03:56:26.527Z,13.40
2022-09-07T03:58:57.272Z,13.65
2022-09-07T04:01:28.712Z,13.57
2022-09-07T04:04:02.343Z,12.32
2022-09-07T04:06:33.218Z,13.65
2022-09-07T04:09:07.902Z,13.93
2022-09-07T04:11:37.557Z,13.18
2022-09-07T04:14:07.716Z,13.60
2022-09-07T04:16:37.444Z,13.13
2022-09-07T04:19:07.374Z,12.60
2022-09-07T04:21:37.129Z,12.93
2022-09-07T04:24:06.958Z,12.80
2022-09-07T04:26:40.278Z,12.85
2022-09-07T04:29:10.367Z,13.38
2022-09-07T04:31:40.589Z,13.20
2022-09-07T04:34:10.418Z,13.25
2022-09-07T04:36:40.065Z,12.73
2022-09-07T04:39:09.663Z,13.20
2022-09-07T04:41:39.310Z,13.10
2022-09-07T04:44:09.733Z,13.20
2022-09-07T04:46:41.327Z,12.98
2022-09-07T04:49:12.733Z,13.43
2022-09-07T04:51:44.577Z,13.45
2022-09-07T04:54:14.314Z,12.55
2022-09-07T04:56:43.915Z,13.00
2022-09-07T04:59:13.693Z,13.43
2022-09-07T05:01:43.421Z,14.07
2022-09-07T05:04:13.088Z,12.07
2022-09-07T05:06:44.018Z,12.48
2022-09-07T05:09:14.287Z,12.95
2022-09-07T05:11:43.874Z,13.00
2022-09-07T05:14:13.907Z,13.45
2022-09-07T05:16:43.581Z,13.73
2022-09-07T05:19:14.825Z,13.88
2022-09-07T05:21:44.429Z,12.88
2022-09-07T05:24:14.086Z,13.73
2022-09-07T05:26:43.873Z,13.93
2022-09-07T05:32:03.437Z,13.82
2022-09-07T05:34:36.097Z,13.18
2022-09-07T05:37:05.724Z,13.63
2022-09-07T05:39:35.452Z,13.63
2022-09-07T05:42:05.313Z,13.00
2022-09-07T05:44:50.150Z,13.13
2022-09-07T05:47:19.683Z,13.38
2022-09-07T05:49:50.339Z,13.52
2022-09-07T05:52:20.664Z,14.52
2022-09-07T05:54:50.288Z,12.85
2022-09-07T05:57:19.854Z,13.05
2022-09-07T05:59:49.427Z,12.60
2022-09-07T06:02:19.195Z,12.98
2022-09-07T06:04:49.306Z,13.30
2022-09-07T06:07:22.037Z,13.85
2022-09-07T06:12:49.264Z,12.35
2022-09-07T06:15:20.414Z,13.18
2022-09-07T06:17:50.481Z,13.85
2022-09-07T06:20:20.435Z,13.15
2022-09-07T06:22:50.405Z,14.15
2022-09-07T06:25:20.428Z,13.63
2022-09-07T06:27:51.155Z,13.65
2022-09-07T06:30:21.357Z,14.13
2022-09-07T06:32:51.327Z,14.20
2022-09-07T06:35:21.264Z,15.02
2022-09-07T06:37:51.085Z,13.57
2022-09-07T06:40:21.007Z,14.20
2022-09-07T06:42:50.977Z,14.88
2022-09-07T06:45:20.937Z,14.10
2022-09-07T06:47:50.937Z,13.57
2022-09-07T06:50:20.955Z,13.82
2022-09-07T06:55:47.535Z,14.18
2022-09-07T06:58:17.507Z,13.98
2022-09-07T07:00:47.528Z,14.07
2022-09-07T07:03:17.711Z,13.40
2022-09-07T07:05:55.454Z,13.93
2022-09-07T07:08:27.406Z,13.07
2022-09-07T07:10:57.979Z,13.95
2022-09-07T07:13:27.739Z,14.25
2022-09-07T07:16:08.754Z,13.77
2022-09-07T07:18:39.174Z,14.75
2022-09-07T07:21:14.045Z,13.57
2022-09-07T07:23:44.207Z,15.00
2022-09-07T07:26:19.513Z,13.60
2022-09-07T07:31:30.154Z,14.07
2022-09-07T07:33:59.863Z,13.75
2022-09-07T07:36:30.174Z,13.52
2022-09-07T07:39:00.991Z,14.07
2022-09-07T07:44:23.282Z,13.80
2022-09-07T07:46:53.681Z,12.88
2022-09-07T07:49:23.330Z,13.98
2022-09-07T07:54:41.114Z,14.65
2022-09-07T07:57:10.789Z,13.93
2022-09-07T07:59:41.034Z,14.43
2022-09-07T08:02:16.825Z,13.48
2022-09-07T08:04:46.538Z,13.95
2022-09-07T08:07:17.416Z,14.13
2022-09-07T08:09:49.094Z,13.93
2022-09-07T08:12:21.705Z,13.90
2022-09-07T08:14:51.445Z,14.75
2022-09-07T08:17:21.276Z,13.77
2022-09-07T08:19:50.857Z,13.27
2022-09-07T08:22:20.666Z,14.35
2022-09-07T08:24:50.817Z,13.70
2022-09-07T08:27:22.455Z,13.88
2022-09-07T08:29:52.445Z,13.70
2022-09-07T08:32:21.986Z,13.77
2022-09-07T08:34:51.587Z,14.18
2022-09-07T08:37:21.187Z,13.25
2022-09-07T08:39:50.759Z,14.43
2022-09-07T08:42:38.185Z,13.43
2022-09-07T08:45:16.336Z,12.68
2022-09-07T08:47:52.016Z,12.50
2022-09-07T08:50:37.786Z,13.52
2022-09-07T08:53:18.272Z,12.27
2022-09-07T08:56:11.403Z,11.98
2022-09-07T08:58:55.915Z,13.40
2022-09-07T09:01:42.490Z,13.68
2022-09-07T09:04:32.672Z,16.35
2022-09-07T09:07:33.315Z,18.55
2022-09-07T09:10:42.096Z,15.02
2022-09-07T09:13:24.434Z,14.15
2022-09-07T09:16:07.684Z,12.65
2022-09-07T09:19:07.944Z,12.27
2022-09-07T09:21:38.003Z,12.23
2022-09-07T09:24:19.037Z,13.02
2022-09-07T09:26:54.785Z,12.57
2022-09-07T09:29:26.224Z,13.07
2022-09-07T09:31:56.223Z,12.77
2022-09-07T09:34:29.332Z,13.25
2022-09-07T09:37:01.335Z,13.45
2022-09-07T09:39:38.361Z,14.32
2022-09-07T09:42:25.203Z,13.38
2022-09-07T09:44:55.614Z,14.77
2022-09-07T09:47:37.677Z,13.82
2022-09-07T09:53:34.436Z,13.32
2022-09-07T09:56:06.885Z,13.65
2022-09-07T10:04:36.923Z,13.98
2022-09-07T10:07:30.465Z,13.25
2022-09-07T10:10:00.823Z,12.88
2022-09-07T10:12:39.364Z,13.10
2022-09-07T10:15:26.584Z,12.98
2022-09-07T10:17:56.977Z,13.65
2022-09-07T10:20:39.303Z,13.75
2022-09-07T10:23:20.858Z,13.65
2022-09-07T10:25:51.048Z,12.93
2022-09-07T10:28:24.268Z,13.60
2022-09-07T10:31:29.666Z,13.85
2022-09-07T10:34:26.880Z,13.77
2022-09-07T10:37:07.603Z,14.45
2022-09-07T10:39:54.001Z,13.43
2022-09-07T10:42:37.484Z,13.32
2022-09-07T10:45:27.325Z,14.23
2022-09-07T10:48:27.513Z,13.93
2022-09-07T10:51:13.688Z,14.30
2022-09-07T10:54:36.248Z,15.48
2022-09-07T10:57:29.744Z,14.65
2022-09-07T11:00:14.159Z,14.45
2022-09-07T11:03:27.591Z,14.60
2022-09-07T11:06:22.102Z,15.10
2022-09-07T11:09:24.765Z,15.75
2022-09-07T11:12:12.222Z,14.70
2022-09-07T11:14:52.354Z,14.52
2022-09-07T11:17:29.933Z,15.55
2022-09-07T11:20:39.175Z,14.88
2022-09-07T11:23:45.504Z,15.27
2022-09-07T11:26:41.455Z,15.63
2022-09-07T11:29:36.218Z,16.08
2022-09-07T11:32:28.074Z,15.38
2022-09-07T11:35:09.213Z,15.77
2022-09-07T11:38:00.874Z,14.90
2022-09-07T11:40:38.403Z,16.85
2022-09-07T11:43:32.103Z,15.70
2022-09-07T11:46:29.998Z,16.25
2022-09-07T11:49:03.348Z,16.70
2022-09-07T11:51:54.365Z,14.98
2022-09-07T11:54:37.764Z,14.73
2022-09-07T11:57:36.353Z,16.55
2022-09-07T12:00:22.485Z,16.10
2022-09-07T12:03:24.862Z,17.67
2022-09-07T12:06:33.576Z,18.42
2022-09-07T12:09:42.333Z,17.92
2022-09-07T12:12:48.916Z,20.75
2022-09-07T12:15:48.365Z,20.67
2022-09-07T12:18:47.684Z,20.02
2022-09-07T12:21:56.463Z,18.27
2022-09-07T12:24:46.230Z,18.90
2022-09-07T12:27:39.711Z,19.88
2022-09-07T12:30:48.453Z,18.92
2022-09-07T12:33:28.793Z,19.50
2022-09-07T12:36:00.676Z,19.08
2022-09-07T12:39:09.422Z,19.40
2022-09-07T12:42:36.708Z,18.88
2022-09-07T12:45:45.841Z,19.40
2022-09-07T12:48:48.395Z,18.95
2022-09-07T12:55:04.476Z,19.98
2022-09-07T12:58:04.463Z,19.65
2022-09-07T13:01:10.650Z,17.60
2022-09-07T13:04:17.134Z,19.38
2022-09-07T13:07:11.342Z,19.63
2022-09-07T13:09:43.453Z,19.20
2022-09-07T13:15:48.634Z,19.50
2022-09-07T13:18:41.084Z,19.25
2022-09-07T13:21:40.743Z,18.75
2022-09-07T13:24:47.773Z,19.05
2022-09-07T13:27:58.943Z,20.23
2022-09-07T13:30:52.291Z,21.85
2022-09-07T13:36:51.096Z,22.10
2022-09-07T13:39:27.675Z,23.52
2022-09-07T13:42:04.234Z,21.13
2022-09-07T13:44:37.466Z,20.92
2022-09-07T13:47:37.684Z,22.15
2022-09-07T13:50:50.126Z,22.25
2022-09-07T13:54:10.265Z,21.95
2022-09-07T13:57:09.555Z,20.73
2022-09-07T13:59:45.054Z,21.17
2022-09-07T14:02:36.342Z,21.70
2022-09-07T14:05:08.884Z,22.88
2022-09-07T14:07:46.024Z,22.55
2022-09-07T14:10:23.745Z,23.53
2022-09-07T14:13:15.535Z,21.88
2022-09-07T14:15:52.664Z,23.60
2022-09-07T14:18:33.352Z,22.67
2022-09-07T14:21:23.237Z,24.23
2022-09-07T14:23:58.915Z,22.45
2022-09-07T14:26:32.091Z,25.40
2022-09-07T14:29:05.004Z,25.33
2022-09-07T14:31:39.343Z,25.85
2022-09-07T14:34:11.873Z,25.35
2022-09-07T14:36:48.783Z,25.73
2022-09-07T14:39:23.197Z,24.98
2022-09-07T14:41:57.953Z,25.20
2022-09-07T14:44:38.948Z,24.38
2022-09-07T14:47:33.597Z,24.48
2022-09-07T14:50:10.803Z,23.77
2022-09-07T14:53:34.319Z,23.73
2022-09-07T14:58:35.059Z,24.17
2022-09-07T15:01:41.756Z,23.42
2022-09-07T15:04:34.847Z,24.05
2022-09-07T15:07:44.146Z,23.95
2022-09-07T15:10:42.389Z,22.52
2022-09-07T15:13:36.914Z,22.75
2022-09-07T15:16:10.488Z,22.63
2022-09-07T15:18:58.902Z,22.38
2022-09-07T15:21:43.943Z,22.08
2022-09-07T15:24:16.523Z,21.05
2022-09-07T15:27:03.318Z,21.23
2022-09-07T15:29:39.439Z,22.05
2022-09-07T15:32:12.307Z,21.05
2022-09-07T15:34:44.017Z,22.58
2022-09-07T15:40:22.265Z,20.92
2022-09-07T15:43:00.738Z,20.85
2022-09-07T15:45:36.325Z,20.45
2022-09-07T15:48:10.240Z,21.55
2022-09-07T15:50:41.899Z,20.27
2022-09-07T15:56:10.767Z,21.30
2022-09-07T15:58:44.423Z,21.30
2022-09-07T16:04:10.051Z,22.50
2022-09-07T16:06:48.144Z,21.45
2022-09-07T16:09:22.116Z,21.67
2022-09-07T16:11:53.420Z,20.95
2022-09-07T16:14:24.681Z,22.38
2022-09-07T16:19:47.326Z,21.63
2022-09-07T16:25:13.219Z,21.45
2022-09-07T16:27:48.323Z,21.00
2022-09-07T16:30:19.919Z,21.45
2022-09-07T16:32:52.458Z,22.00
2022-09-07T16:35:23.117Z,21.30
2022-09-07T16:40:45.987Z,20.48
2022-09-07T16:43:16.070Z,22.00
2022-09-07T16:48:38.002Z,21.75
2022-09-07T16:51:09.586Z,20.65
2022-09-07T16:53:41.574Z,21.48
2022-09-07T16:56:20.349Z,20.88
2022-09-07T16:58:53.948Z,22.65
2022-09-07T17:01:27.264Z,22.25
2022-09-07T17:04:00.411Z,21.05
2022-09-07T17:06:33.921Z,22.38
2022-09-07T17:09:03.997Z,22.30
2022-09-07T17:11:37.135Z,21.85
2022-09-07T17:14:08.273Z,22.42
2022-09-07T17:16:40.966Z,21.65
2022-09-07T17:19:30.355Z,21.85
2022-09-07T17:22:01.940Z,21.25
2022-09-07T17:24:32.782Z,22.17
2022-09-07T17:27:07.422Z,21.27
2022-09-07T17:29:37.848Z,22.15
2022-09-07T17:32:24.436Z,21.05
2022-09-07T17:34:54.839Z,22.45
2022-09-07T17:37:27.562Z,21.45
2022-09-07T17:39:57.220Z,20.52
2022-09-07T17:45:19.392Z,21.55
2022-09-07T17:47:51.160Z,21.70
2022-09-07T17:50:23.570Z,20.88
2022-09-07T17:52:53.315Z,20.10
2022-09-07T17:55:23.999Z,20.63
2022-09-07T17:57:53.611Z,21.85
2022-09-07T18:00:26.032Z,20.23
2022-09-07T18:02:55.766Z,19.63
2022-09-07T18:05:26.361Z,21.50
2022-09-07T18:07:56.495Z,20.60
2022-09-07T18:13:35.641Z,20.40
2022-09-07T18:16:14.042Z,20.13
2022-09-07T18:18:44.859Z,22.45
2022-09-07T18:21:21.274Z,20.67
2022-09-07T18:23:55.679Z,22.88
2022-09-07T18:26:26.954Z,20.35
2022-09-07T18:29:10.433Z,22.45
2022-09-07T18:31:47.628Z,22.20
2022-09-07T18:34:17.713Z,21.98
2022-09-07T18:36:47.379Z,21.63
2022-09-07T18:39:17.095Z,22.08
2022-09-07T18:41:51.696Z,22.30
2022-09-07T18:47:18.084Z,21.98
2022-09-07T18:49:51.811Z,22.33
2022-09-07T18:55:14.115Z,22.15
2022-09-07T18:57:44.967Z,21.60
2022-09-07T19:00:16.152Z,21.42
2022-09-07T19:02:51.022Z,23.65
2022-09-07T19:08:10.813Z,23.42
2022-09-07T19:10:41.022Z,22.08
2022-09-07T19:13:10.672Z,21.85
2022-09-07T19:15:40.403Z,22.15
2022-09-07T19:18:11.334Z,22.42
2022-09-07T19:20:41.110Z,22.38
2022-09-07T19:23:10.808Z,22.20
2022-09-07T19:25:44.041Z,23.10
2022-09-07T19:28:14.879Z,22.95
2022-09-07T19:30:44.724Z,21.20
2022-09-07T19:33:14.615Z,23.67
2022-09-07T19:35:45.831Z,22.52
2022-09-07T19:38:15.822Z,21.58
2022-09-07T19:40:46.016Z,20.58
2022-09-07T19:43:16.339Z,22.70
2022-09-07T19:45:46.202Z,23.40
2022-09-07T19:48:16.166Z,21.50
2022-09-07T19:50:52.048Z,22.27
2022-09-07T19:53:22.193Z,22.45
2022-09-07T19:55:52.373Z,19.98
2022-09-07T19:58:22.377Z,20.67
2022-09-07T20:00:52.415Z,21.20
2022-09-07T20:03:22.404Z,21.42
2022-09-07T20:05:52.383Z,23.27
2022-09-07T20:08:23.100Z,22.02
2022-09-07T20:10:53.142Z,21.38
2022-09-07T20:13:23.448Z,22.23
2022-09-07T20:15:53.449Z,21.88
2022-09-07T20:18:23.916Z,21.35
2022-09-07T20:20:53.813Z,22.67
2022-09-07T20:23:23.887Z,21.77
2022-09-07T20:26:04.661Z,22.05
2022-09-07T20:28:40.306Z,21.02
2022-09-07T20:31:13.204Z,21.35
2022-09-07T20:33:44.138Z,22.17
2022-09-07T20:36:19.282Z,22.08
2022-09-07T20:38:53.330Z,22.35
2022-09-07T20:41:31.875Z,21.98
2022-09-07T20:44:02.636Z,21.40
2022-09-07T20:46:33.364Z,21.73
2022-09-07T20:49:03.593Z,20.27
2022-09-07T20:51:33.310Z,20.85
2022-09-07T20:54:02.910Z,21.10
2022-09-07T20:56:32.930Z,21.02
2022-09-07T20:59:04.422Z,23.70
2022-09-07T21:01:36.775Z,23.50
2022-09-07T21:04:07.852Z,22.40
2022-09-07T21:06:37.445Z,22.08
2022-09-07T21:09:07.229Z,22.10
2022-09-07T21:11:38.177Z,22.55
2022-09-07T21:14:13.225Z,22.02
2022-09-07T21:16:44.249Z,21.05
2022-09-07T21:19:14.104Z,22.25
2022-09-07T21:21:44.876Z,21.20
2022-09-07T21:24:24.718Z,21.23
2022-09-07T21:26:54.833Z,21.23
2022-09-07T21:29:27.369Z,22.00
2022-09-07T21:31:57.476Z,21.90
2022-09-07T21:34:27.463Z,21.90
2022-09-07T21:36:57.356Z,21.77
2022-09-07T21:39:26.995Z,21.98
2022-09-07T21:41:56.618Z,21.00
2022-09-07T21:44:27.424Z,20.83
2022-09-07T21:46:57.441Z,21.52
2022-09-07T21:49:27.103Z,22.80
2022-09-07T21:51:56.665Z,20.33
2022-09-07T21:54:27.056Z,20.70
2022-09-07T21:56:56.616Z,20.90
2022-09-07T21:59:26.184Z,21.55
2022-09-07T22:01:55.920Z,21.05
2022-09-07T22:04:25.520Z,22.45
2022-09-07T22:06:55.270Z,21.17
2022-09-07T22:09:25.268Z,21.52
2022-09-07T22:11:54.876Z,21.15
2022-09-07T22:14:24.503Z,22.13
2022-09-07T22:16:54.273Z,21.40
2022-09-07T22:19:24.046Z,21.35
2022-09-07T22:21:55.014Z,22.15
2022-09-07T22:24:24.720Z,22.17
2022-09-07T22:26:55.066Z,21.30
2022-09-07T22:29:25.152Z,21.63
2022-09-07T22:31:55.856Z,20.40
2022-09-07T22:34:25.920Z,19.73
2022-09-07T22:36:55.945Z,21.85
2022-09-07T22:39:26.223Z,21.35
2022-09-07T22:41:56.280Z,20.25
2022-09-07T22:44:28.433Z,21.35
2022-09-07T22:46:58.601Z,20.20
2022-09-07T22:49:28.728Z,20.98
2022-09-07T22:51:58.727Z,20.92
2022-09-07T22:54:28.753Z,21.98
2022-09-07T22:56:58.750Z,22.80
2022-09-07T22:59:28.700Z,20.98
2022-09-07T23:01:58.787Z,21.20
2022-09-07T23:04:31.718Z,22.00
2022-09-07T23:07:02.003Z,21.30
2022-09-07T23:09:32.128Z,22.25
2022-09-07T23:12:02.217Z,20.33
2022-09-07T23:14:32.729Z,21.15
2022-09-07T23:17:02.682Z,21.60
2022-09-07T23:19:32.671Z,21.95
2022-09-07T23:22:02.754Z,22.48
2022-09-07T23:24:33.085Z,23.05
2022-09-07T23:27:02.695Z,21.95
2022-09-07T23:29:32.356Z,21.52
2022-09-07T23:32:02.005Z,20.80
2022-09-07T23:34:31.648Z,21.40
2022-09-07T23:37:01.300Z,20.33
2022-09-07T23:39:31.188Z,21.23
2022-09-07T23:42:01.067Z,20.52
2022-09-07T23:44:30.738Z,20.20
2022-09-07T23:47:00.321Z,20.50
2022-09-07T23:49:29.903Z,19.42
2022-09-07T23:51:59.614Z,20.50
2022-09-07T23:54:29.235Z,21.00
2022-09-07T23:56:58.885Z,20.98
2022-09-07T23:59:28.657Z,21.63
